Anco, Kentucky
Current Conditions -  °F | °C
As of 6:53 PM on Monday 22 Dec 2014 (Local Time) from KJKL Reporting Station
Light Rain Light Rain  
Wind Chill: 11°   Ceiling: 7500
Heat Index: 11°   Visibility: 10mi
Dew Point:   Wind: 3mph
Humidity: 63%   Direction: 110°ESE
Pressure: 29.84"   Gusts: NA
Location:  37.2376°N, 83.0326°W
Report Text: KJKL 222353Z AUTO 11003KT 10SM -RA FEW048 SCT060 OVC075 11/04 A2984 RMK AO2 RAB03 SLP104 P0000 60000 T01110044 10133 20111 55000
Loading
Personal Weather Stations






























Interactive Weather Map New forecast layout! Learn more

10-Day Weather Forecast

Advertisements
Track Severe Weather on mobile